Time;durP1;ratioP1;P1;durP2;ratioP2;P2;SDS_P1;SDS_P2;PMS_P1;PMS_P2;Temp;Humidity;BMP_temperature;BMP_pressure;BME280_temperature;BME280_humidity;BME280_pressure;Samples;Min_cycle;Max_cycle;Signal;HPM_P1;HPM_P2
2022/09/21 00:00:39;;;;;;;7.32;3.78;;;;;;;7.85;100.00;100161.19;5095884;28;20027;-77
2022/09/21 00:03:04;;;;;;;5.22;3.75;;;;;;;7.78;100.00;100151.03;5095795;28;20024;-77
2022/09/21 00:05:30;;;;;;;5.03;4.18;;;;;;;7.74;100.00;100158.03;5095968;28;20127;-77
2022/09/21 00:08:03;;;;;;;4.10;3.70;;;;;;;7.73;100.00;100149.41;5095900;28;20028;-77
2022/09/21 00:10:28;;;;;;;5.38;3.80;;;;;;;7.77;100.00;100168.34;5095628;28;20028;-77
2022/09/21 00:12:56;;;;;;;5.00;3.92;;;;;;;7.78;100.00;100161.41;5095541;28;20023;-77
2022/09/21 00:15:22;;;;;;;5.82;4.03;;;;;;;7.77;100.00;100170.06;5095379;28;20361;-77
2022/09/21 00:17:53;;;;;;;5.93;3.90;;;;;;;7.70;100.00;100153.81;5095992;28;20032;-77
2022/09/21 00:20:20;;;;;;;5.28;4.00;;;;;;;7.70;100.00;100159.84;5095197;28;20016;-77
2022/09/21 00:22:46;;;;;;;6.22;4.15;;;;;;;7.72;100.00;100171.06;5095532;28;20026;-77
2022/09/21 00:25:12;;;;;;;4.45;3.83;;;;;;;7.70;100.00;100165.03;5095215;28;20031;-77
2022/09/21 00:27:37;;;;;;;6.13;4.60;;;;;;;7.66;100.00;100160.81;5095571;28;20024;-77
2022/09/21 00:30:05;;;;;;;4.65;3.78;;;;;;;7.62;100.00;100160.94;5095463;28;20036;-77
2022/09/21 00:32:32;;;;;;;6.88;4.78;;;;;;;7.67;100.00;100164.28;5095413;28;20412;-77
2022/09/21 00:34:59;;;;;;;6.03;4.63;;;;;;;7.66;100.00;100168.59;5095361;28;20039;-77
2022/09/21 00:37:26;;;;;;;6.90;4.55;;;;;;;7.64;100.00;100173.00;5095033;28;20081;-77
2022/09/21 00:39:52;;;;;;;5.95;4.50;;;;;;;7.63;100.00;100176.47;5095388;28;20036;-77
2022/09/21 00:42:20;;;;;;;7.00;4.05;;;;;;;7.55;100.00;100173.25;5095012;28;20484;-77
2022/09/21 00:44:45;;;;;;;5.30;4.80;;;;;;;7.61;100.00;100178.25;5095538;28;20028;-77
2022/09/21 00:47:44;;;;;;;5.38;4.30;;;;;;;7.58;100.00;100186.09;5094968;28;20461;-77
2022/09/21 00:50:14;;;;;;;6.70;4.60;;;;;;;7.49;100.00;100173.38;5032170;28;20418;-77
2022/09/21 00:52:46;;;;;;;6.20;4.20;;;;;;;7.45;100.00;100172.59;5032186;28;20061;-77
2022/09/21 00:55:18;;;;;;;6.82;4.53;;;;;;;7.52;100.00;100183.69;5031975;28;20041;-77
2022/09/21 00:57:48;;;;;;;6.15;4.72;;;;;;;7.28;100.00;100148.84;5032146;28;20048;-77
2022/09/21 01:00:13;;;;;;;7.40;4.40;;;;;;;7.46;100.00;100181.25;5031986;28;20100;-77
2022/09/21 01:02:39;;;;;;;5.85;4.28;;;;;;;7.39;100.00;100175.34;5032095;28;20097;-77
2022/09/21 01:05:07;;;;;;;7.15;4.47;;;;;;;7.43;100.00;100189.09;5031899;28;20041;-77
2022/09/21 01:07:36;;;;;;;4.60;4.10;;;;;;;7.37;100.00;100187.50;5032168;28;20096;-77
2022/09/21 01:10:08;;;;;;;5.13;4.18;;;;;;;7.33;100.00;100180.72;5032177;28;20026;-77
2022/09/21 01:12:39;;;;;;;5.57;4.45;;;;;;;7.36;100.00;100193.56;5031957;28;20141;-77
2022/09/21 01:15:13;;;;;;;7.43;4.60;;;;;;;7.34;100.00;100192.78;5031974;28;20042;-77
2022/09/21 01:17:57;;;;;;;4.50;4.10;;;;;;;7.32;100.00;100193.69;5031944;28;20025;-77
2022/09/21 01:20:33;;;;;;;5.90;4.72;;;;;;;7.28;100.00;100205.84;5031518;28;20041;-77
2022/09/21 01:22:58;;;;;;;6.40;4.43;;;;;;;7.28;100.00;100202.41;5031675;28;20037;-77
2022/09/21 01:25:32;;;;;;;5.43;3.97;;;;;;;7.27;100.00;100196.38;5031530;28;20099;-77
2022/09/21 01:28:28;;;;;;;5.18;4.68;;;;;;;7.27;100.00;100193.81;5088022;28;20024;-76
2022/09/21 01:30:58;;;;;;;5.68;4.50;;;;;;;7.16;100.00;100196.66;5094466;28;20027;-77
2022/09/21 01:33:32;;;;;;;5.72;4.50;;;;;;;7.20;100.00;100206.03;5094176;28;20027;-76
2022/09/21 01:36:04;;;;;;;4.82;4.40;;;;;;;7.19;100.00;100213.84;5094107;28;20047;-77
2022/09/21 01:38:36;;;;;;;5.70;4.63;;;;;;;7.17;100.00;100210.47;5093675;28;20024;-77
2022/09/21 01:41:04;;;;;;;5.43;4.50;;;;;;;7.09;100.00;100202.88;5094262;28;20034;-77
2022/09/21 01:43:37;;;;;;;5.25;4.60;;;;;;;7.11;100.00;100208.84;5093654;28;20564;-77
2022/09/21 01:46:06;;;;;;;6.22;4.53;;;;;;;7.06;100.00;100207.25;5094059;28;20027;-76
2022/09/21 01:48:35;;;;;;;6.80;5.05;;;;;;;7.06;100.00;100207.25;5093670;28;20024;-77
2022/09/21 01:51:05;;;;;;;6.20;4.60;;;;;;;7.06;100.00;100212.44;5093654;28;20027;-76
2022/09/21 01:54:20;;;;;;;7.45;4.63;;;;;;;7.09;100.00;100217.56;5093525;28;20432;-77
2022/09/21 01:56:53;;;;;;;6.53;4.53;;;;;;;7.03;100.00;100199.56;5031213;28;20119;-77
2022/09/21 01:59:29;;;;;;;7.25;5.20;;;;;;;7.09;100.00;100213.22;5030780;28;20534;-77
2022/09/21 02:02:07;;;;;;;5.90;5.05;;;;;;;7.09;100.00;100209.78;5030842;28;20171;-77
2022/09/21 02:04:34;;;;;;;5.30;4.57;;;;;;;7.07;100.00;100207.22;5030651;28;20021;-77
2022/09/21 02:07:00;;;;;;;5.43;4.82;;;;;;;7.13;100.00;100207.09;5030672;28;20037;-77
2022/09/21 02:09:25;;;;;;;6.68;5.40;;;;;;;7.16;100.00;100207.03;5030514;28;20087;-77
2022/09/21 02:11:51;;;;;;;5.80;4.90;;;;;;;7.29;100.00;100217.06;5030749;28;20033;-77
2022/09/21 02:14:21;;;;;;;6.22;5.63;;;;;;;7.33;100.00;100223.88;5029995;28;20512;-77
2022/09/21 02:17:07;;;;;;;8.13;6.05;;;;;;;7.45;100.00;100234.81;5030827;28;20037;-77
2022/09/21 02:19:53;;;;;;;6.20;5.60;;;;;;;7.50;100.00;100217.41;5030626;28;20037;-77
2022/09/21 02:22:34;;;;;;;6.70;6.05;;;;;;;7.57;100.00;100222.44;5030353;28;20033;-76
2022/09/21 02:25:14;;;;;;;7.70;6.60;;;;;;;7.67;100.00;100236.88;5030678;28;20022;-77
2022/09/21 02:27:52;;;;;;;9.35;8.30;;;;;;;7.69;100.00;100219.53;5030587;28;20421;-77
2022/09/21 02:30:20;;;;;;;10.52;8.25;;;;;;;7.77;100.00;100233.16;5030290;28;20072;-77
2022/09/21 02:32:55;;;;;;;10.18;7.95;;;;;;;7.83;100.00;100227.78;5051400;28;20354;-77
2022/09/21 02:35:50;;;;;;;9.50;8.15;;;;;;;7.88;100.00;100232.88;5092792;28;20077;-77
2022/09/21 02:38:40;;;;;;;11.43;8.88;;;;;;;7.86;100.00;100226.88;5092693;28;20028;-77
2022/09/21 02:41:18;;;;;;;10.38;8.98;;;;;;;7.93;100.00;100229.28;5092700;28;20031;-76
2022/09/21 02:43:59;;;;;;;10.35;8.63;;;;;;;7.96;100.00;100236.09;5092937;28;20024;-77
2022/09/21 02:46:27;;;;;;;10.55;8.80;;;;;;;7.99;100.00;100233.44;5092629;28;20031;-76
2022/09/21 02:49:18;;;;;;;10.27;9.10;;;;;;;7.96;100.00;100224.00;5092908;28;20024;-76
2022/09/21 02:51:48;;;;;;;9.80;8.80;;;;;;;7.93;100.00;100218.06;5092799;28;20016;-77
2022/09/21 02:54:18;;;;;;;12.57;9.85;;;;;;;8.01;100.00;100229.09;5092734;28;20023;-76
2022/09/21 02:56:47;;;;;;;11.00;9.90;;;;;;;8.04;100.00;100228.97;5092782;28;20062;-77
2022/09/21 02:59:13;;;;;;;11.38;9.48;;;;;;;8.08;100.00;100229.75;5092608;28;20070;-77
2022/09/21 03:01:39;;;;;;;11.70;10.00;;;;;;;8.08;100.00;100227.16;5092209;28;20048;-77
2022/09/21 03:04:04;;;;;;;10.32;9.32;;;;;;;8.15;100.00;100241.66;5092487;28;20055;-76
2022/09/21 03:06:30;;;;;;;11.43;10.30;;;;;;;8.15;100.00;100233.88;5092107;28;20079;-77
2022/09/21 03:08:57;;;;;;;10.15;9.18;;;;;;;8.23;100.00;100252.69;5092501;28;20027;-77
2022/09/21 03:11:23;;;;;;;11.35;9.77;;;;;;;8.18;100.00;100236.41;5092191;28;20032;-77
2022/09/21 03:13:48;;;;;;;14.32;9.90;;;;;;;8.20;100.00;100237.19;5092163;28;20028;-76
2022/09/21 03:16:14;;;;;;;19.63;9.77;;;;;;;8.23;100.00;100248.34;5092185;28;20410;-76
2022/09/21 03:18:43;;;;;;;10.20;9.20;;;;;;;8.20;100.00;100237.19;5092022;28;20012;-77
2022/09/21 03:21:11;;;;;;;12.13;9.80;;;;;;;8.22;100.00;100249.25;5092362;28;20020;-76
2022/09/21 03:23:37;;;;;;;10.98;9.88;;;;;;;8.27;100.00;100254.31;5092028;28;20043;-77
2022/09/21 03:26:03;;;;;;;11.55;10.35;;;;;;;8.22;100.00;100246.66;5091308;28;20016;-77
2022/09/21 03:28:28;;;;;;;14.48;10.10;;;;;;;8.27;100.00;100258.66;5091938;28;20016;-77
2022/09/21 03:30:53;;;;;;;11.25;10.02;;;;;;;8.27;100.00;100254.31;5091995;28;20044;-77
2022/09/21 03:33:19;;;;;;;10.63;9.52;;;;;;;8.26;100.00;100255.22;5092095;28;20117;-77
2022/09/21 03:35:47;;;;;;;12.07;10.88;;;;;;;8.30;100.00;100259.44;5092209;28;20028;-77
2022/09/21 03:38:13;;;;;;;11.05;9.85;;;;;;;8.30;100.00;100262.03;5092158;28;20390;-77
2022/09/21 03:40:39;;;;;;;11.40;10.18;;;;;;;8.28;100.00;100255.16;5091793;28;20039;-77
2022/09/21 03:43:04;;;;;;;11.60;10.43;;;;;;;8.33;100.00;100267.09;5092068;28;20024;-77
2022/09/21 03:45:30;;;;;;;11.95;10.45;;;;;;;8.23;100.00;100247.50;5091904;28;20465;-77
2022/09/21 03:47:57;;;;;;;12.30;10.98;;;;;;;8.32;100.00;100259.38;5092083;28;20036;-77
2022/09/21 03:50:27;;;;;;;11.60;10.40;;;;;;;8.34;100.00;100270.53;5091839;28;20069;-77
2022/09/21 03:52:53;;;;;;;13.13;10.38;;;;;;;8.28;100.00;100261.19;5091843;28;20020;-77
2022/09/21 03:55:18;;;;;;;12.73;10.27;;;;;;;8.34;100.00;100265.34;5091680;28;20020;-77
2022/09/21 03:57:44;;;;;;;11.75;10.55;;;;;;;8.30;100.00;100253.34;5091883;28;20423;-77
2022/09/21 04:00:10;;;;;;;12.13;10.85;;;;;;;8.34;100.00;100270.53;5091640;28;20480;-77
2022/09/21 04:02:37;;;;;;;11.25;10.05;;;;;;;8.33;100.00;100274.03;5091541;28;20025;-77
2022/09/21 04:05:03;;;;;;;10.68;9.65;;;;;;;8.32;100.00;100268.00;5091598;28;20017;-77
2022/09/21 04:07:35;;;;;;;13.15;11.05;;;;;;;8.32;100.00;100267.16;5091586;28;20016;-77
2022/09/21 04:10:04;;;;;;;12.50;11.20;;;;;;;8.33;100.00;100272.28;5091658;28;20028;-77
2022/09/21 04:12:30;;;;;;;11.52;10.07;;;;;;;8.33;100.00;100280.09;5091094;28;20067;-77
2022/09/21 04:14:55;;;;;;;11.32;10.23;;;;;;;8.36;100.00;100281.75;5091852;28;20055;-77
2022/09/21 04:17:20;;;;;;;10.63;9.52;;;;;;;8.37;100.00;100286.06;5091441;28;20345;-77
2022/09/21 04:19:46;;;;;;;11.73;10.40;;;;;;;8.39;100.00;100287.75;5091777;28;20020;-77
2022/09/21 04:22:12;;;;;;;11.85;10.48;;;;;;;8.41;100.00;100300.69;5091656;28;20024;-77
2022/09/21 04:24:39;;;;;;;12.23;10.80;;;;;;;8.32;100.00;100285.31;5091306;28;20036;-77
2022/09/21 04:27:08;;;;;;;14.02;11.55;;;;;;;8.33;100.00;100287.88;5091386;28;20484;-77
2022/09/21 04:29:34;;;;;;;12.85;11.55;;;;;;;8.41;100.00;100288.53;5091203;28;20118;-77
2022/09/21 04:32:00;;;;;;;13.73;12.32;;;;;;;8.30;100.00;100271.53;5091581;28;20027;-77
2022/09/21 04:34:25;;;;;;;15.27;12.43;;;;;;;8.41;100.00;100290.28;5091731;28;20365;-77
2022/09/21 04:36:52;;;;;;;15.80;13.82;;;;;;;8.42;100.00;100292.00;5093291;28;20016;-77
2022/09/21 04:39:17;;;;;;;18.17;15.82;;;;;;;8.37;100.00;100284.34;5095443;28;20465;-77
2022/09/21 04:41:43;;;;;;;18.60;16.27;;;;;;;8.35;100.00;100291.28;5094842;28;20103;-77
2022/09/21 04:44:08;;;;;;;19.38;17.27;;;;;;;8.40;100.00;100296.38;5095249;28;20023;-77
2022/09/21 04:46:33;;;;;;;23.17;19.60;;;;;;;8.42;100.00;100302.38;5095044;28;20016;-77
2022/09/21 04:48:59;;;;;;;19.33;17.30;;;;;;;8.43;100.00;100301.50;5095114;28;20019;-77
2022/09/21 04:51:24;;;;;;;19.63;16.75;;;;;;;8.37;100.00;100286.06;5094864;28;20027;-77
2022/09/21 04:53:50;;;;;;;19.63;15.88;;;;;;;8.35;100.00;100290.44;5095042;28;20024;-77
2022/09/21 04:56:16;;;;;;;15.82;13.15;;;;;;;8.40;100.00;100301.56;5094801;28;20522;-77
2022/09/21 04:58:42;;;;;;;15.30;12.98;;;;;;;8.38;100.00;100298.16;5094844;28;20028;-77
2022/09/21 05:01:07;;;;;;;12.95;11.27;;;;;;;8.38;100.00;100293.81;5095146;28;20016;-77
2022/09/21 05:03:33;;;;;;;12.70;11.40;;;;;;;8.42;100.00;100303.22;5094605;28;20062;-77
2022/09/21 05:05:58;;;;;;;13.93;12.00;;;;;;;8.42;100.00;100295.44;5094792;28;20040;-77
2022/09/21 05:11:20;;;;;;;12.82;11.50;;;;;;;8.43;100.00;100296.31;5094434;28;20062;-77
2022/09/21 05:13:46;;;;;;;13.45;10.73;;;;;;;8.54;100.00;100311.56;5094275;28;20492;-77
2022/09/21 05:16:13;;;;;;;12.85;10.65;;;;;;;8.57;100.00;100314.09;5094716;28;20020;-77
2022/09/21 05:18:38;;;;;;;11.93;10.23;;;;;;;8.55;100.00;100306.31;5094139;28;20111;-77
2022/09/21 05:21:05;;;;;;;12.55;11.25;;;;;;;8.59;100.00;100309.69;5094428;28;20094;-77
2022/09/21 05:23:30;;;;;;;12.55;11.25;;;;;;;8.58;100.00;100308.84;5094045;28;20024;-77
2022/09/21 05:25:57;;;;;;;12.40;11.10;;;;;;;8.59;100.00;100312.28;5094723;28;20031;-77
2022/09/21 05:28:23;;;;;;;13.27;11.50;;;;;;;8.63;100.00;100298.31;5094583;28;20016;-77
2022/09/21 05:31:17;;;;;;;13.18;11.32;;;;;;;8.71;100.00;100317.16;5093951;28;20088;-77
2022/09/21 05:34:07;;;;;;;13.45;11.10;;;;;;;8.69;100.00;100312.00;5093708;28;20368;-77
2022/09/21 05:36:35;;;;;;;12.67;11.37;;;;;;;8.78;100.00;100326.47;5094163;28;20094;-77
2022/09/21 05:39:00;;;;;;;12.40;11.10;;;;;;;8.83;100.00;100334.13;5094140;28;20032;-77
2022/09/21 05:41:26;;;;;;;12.45;11.20;;;;;;;8.88;100.00;100334.84;5093759;28;20497;-77
2022/09/21 05:43:52;;;;;;;12.30;11.00;;;;;;;8.83;100.00;100324.59;5094205;28;20051;-77
2022/09/21 05:46:40;;;;;;;13.35;11.35;;;;;;;8.89;100.00;100327.03;5093818;28;20016;-77
2022/09/21 05:49:31;;;;;;;11.10;10.00;;;;;;;8.92;100.00;100337.31;5070190;28;20040;-77
2022/09/21 05:51:56;;;;;;;11.82;10.43;;;;;;;8.95;100.00;100333.78;5011310;28;20030;-77
2022/09/21 05:54:43;;;;;;;13.10;10.60;;;;;;;8.96;100.00;100330.28;5011442;28;20108;-77
2022/09/21 05:57:18;;;;;;;14.93;11.95;;;;;;;8.94;100.00;100339.88;5011355;28;20038;-77
2022/09/21 06:00:19;;;;;;;13.13;10.45;;;;;;;8.91;100.00;100337.38;5011253;28;20138;-77
2022/09/21 06:03:08;;;;;;;12.60;10.95;;;;;;;8.87;100.00;100336.59;5010948;28;20175;-77
2022/09/21 06:05:33;;;;;;;12.77;11.45;;;;;;;8.89;100.00;100342.63;5010865;28;20046;-77
2022/09/21 06:07:59;;;;;;;13.30;11.00;;;;;;;8.82;100.00;100333.28;5011328;28;20036;-77
2022/09/21 06:10:28;;;;;;;12.43;10.85;;;;;;;8.81;100.00;100341.97;5011239;28;20033;-77
2022/09/21 06:12:53;;;;;;;12.88;11.43;;;;;;;8.86;100.00;100352.25;5010934;28;20040;-77
2022/09/21 06:15:18;;;;;;;12.30;11.00;;;;;;;8.86;100.00;100349.63;5011082;28;20120;-77
2022/09/21 06:17:44;;;;;;;11.95;10.68;;;;;;;8.85;100.00;100343.59;5010705;28;20097;-77
2022/09/21 06:20:09;;;;;;;12.93;11.02;;;;;;;8.82;100.00;100343.69;5010823;28;20029;-77
2022/09/21 06:22:34;;;;;;;15.40;11.60;;;;;;;8.89;100.00;100357.31;5010636;28;20030;-77
2022/09/21 06:25:00;;;;;;;12.80;10.63;;;;;;;8.83;100.00;100352.31;5012694;28;20120;-77
2022/09/21 06:27:27;;;;;;;12.75;11.25;;;;;;;8.88;100.00;100356.47;5050408;28;20023;-77
2022/09/21 06:29:52;;;;;;;12.70;11.40;;;;;;;8.91;100.00;100365.94;5087511;28;20032;-77
2022/09/21 06:32:17;;;;;;;13.38;11.13;;;;;;;8.82;100.00;100348.03;5093019;28;20023;-77
2022/09/21 06:34:43;;;;;;;13.90;11.20;;;;;;;8.92;100.00;100360.69;5092950;28;20035;-77
2022/09/21 06:37:08;;;;;;;13.13;11.18;;;;;;;8.94;100.00;100358.91;5093073;28;20473;-77
2022/09/21 06:39:34;;;;;;;14.85;10.95;;;;;;;8.98;100.00;100360.53;5092692;28;20026;-77
2022/09/21 06:41:59;;;;;;;12.60;11.30;;;;;;;9.06;100.00;100357.72;5092829;28;20070;-77
2022/09/21 06:44:25;;;;;;;16.35;11.50;;;;;;;9.24;100.00;100358.91;5092760;28;20024;-77
2022/09/21 06:46:51;;;;;;;12.68;10.35;;;;;;;9.47;100.00;100366.84;5092326;28;20405;-77
2022/09/21 06:49:16;;;;;;;12.68;11.38;;;;;;;9.93;100.00;100357.59;5092945;28;20028;-77
2022/09/21 06:51:42;;;;;;;12.55;10.65;;;;;;;10.39;100.00;100358.69;5092501;28;20020;-77
2022/09/21 06:54:07;;;;;;;12.88;11.45;;;;;;;10.67;100.00;100356.00;5092873;28;20024;-77
2022/09/21 06:56:34;;;;;;;11.18;10.00;;;;;;;10.87;100.00;100352.66;5092426;28;20024;-77
2022/09/21 06:58:59;;;;;;;11.52;10.38;;;;;;;11.08;100.00;100369.28;5092485;28;20031;-77
2022/09/21 07:01:25;;;;;;;10.98;9.90;;;;;;;11.09;100.00;100359.69;5092481;28;20016;-77
2022/09/21 07:03:51;;;;;;;10.75;9.50;;;;;;;11.08;100.00;100368.41;5092459;28;20027;-77
2022/09/21 07:06:17;;;;;;;12.55;10.07;;;;;;;10.96;100.00;100373.19;5092308;28;20042;-77
2022/09/21 07:08:43;;;;;;;10.77;9.68;;;;;;;10.80;100.00;100372.03;5092380;28;20022;-77
2022/09/21 07:11:09;;;;;;;11.20;10.05;;;;;;;10.96;100.00;100377.53;5092411;28;20032;-77
2022/09/21 07:13:35;;;;;;;9.82;8.82;;;;;;;11.22;100.00;100373.97;5092007;28;20077;-77
2022/09/21 07:16:05;;;;;;;11.10;9.50;;;;;;;11.38;100.00;100379.47;5092104;28;20158;-77
2022/09/21 07:18:32;;;;;;;;;;;;;;;11.47;100.00;100390.38;5093021;28;20016;-77
2022/09/21 07:21:00;;;;;;;9.02;8.00;;;;;;;11.43;100.00;100391.41;5092289;28;19911;-77
2022/09/21 07:23:26;;;;;;;11.55;8.55;;;;;;;11.39;100.00;100391.59;5092335;28;20031;-77
2022/09/21 07:25:51;;;;;;;9.32;8.38;;;;;;;11.42;100.00;100392.31;5092143;28;20563;-78
2022/09/21 07:28:18;;;;;;;9.93;8.93;;;;;;;11.66;100.00;100395.72;5092351;28;20475;-77
2022/09/21 07:30:43;;;;;;;10.35;9.35;;;;;;;11.72;100.00;100395.50;5091868;28;20384;-77
2022/09/21 07:33:09;;;;;;;10.07;8.05;;;;;;;11.78;100.00;100388.34;5092203;28;20020;-78
2022/09/21 07:35:35;;;;;;;8.93;8.00;;;;;;;11.79;100.00;100395.25;5092026;28;20036;-77
2022/09/21 07:38:03;;;;;;;10.15;8.77;;;;;;;11.69;100.00;100390.38;5092007;28;20016;-77
2022/09/21 07:40:28;;;;;;;9.40;8.38;;;;;;;11.79;100.00;100403.91;5092041;28;20016;-77
2022/09/21 07:42:58;;;;;;;9.88;8.85;;;;;;;11.82;100.00;100389.91;5091730;28;20089;-77
2022/09/21 07:45:25;;;;;;;11.35;8.90;;;;;;;11.85;100.00;100398.50;5092106;28;20098;-77
2022/09/21 07:47:53;;;;;;;9.00;8.10;;;;;;;11.85;100.00;100401.13;5091949;28;20106;-77
2022/09/21 07:50:22;;;;;;;9.88;8.55;;;;;;;11.82;100.00;100393.38;5091966;28;20020;-77
2022/09/21 07:52:47;;;;;;;9.75;8.40;;;;;;;11.94;100.00;100399.91;5091831;28;20024;-77
2022/09/21 07:55:13;;;;;;;9.52;8.55;;;;;;;12.05;100.00;100396.81;5094002;28;20072;-77
2022/09/21 08:00:23;;;;;;;9.00;8.02;;;;;;;12.42;100.00;100402.22;5100182;28;20027;-77
2022/09/21 08:02:48;;;;;;;8.15;7.35;;;;;;;12.37;100.00;100398.97;5100027;28;20031;-77
2022/09/21 08:05:14;;;;;;;8.85;7.95;;;;;;;12.41;100.00;100400.53;5098933;28;20090;-78
2022/09/21 08:07:39;;;;;;;8.65;7.32;;;;;;;12.49;100.00;100406.28;5096217;28;20034;-77
2022/09/21 08:10:05;;;;;;;8.18;7.35;;;;;;;12.56;100.00;100417.34;5111934;28;20104;-77
2022/09/21 08:12:30;;;;;;;7.90;7.10;;;;;;;12.43;100.00;100411.78;5105533;28;20012;-78
2022/09/21 08:14:56;;;;;;;8.05;7.25;;;;;;;12.39;100.00;100407.59;5104130;28;20431;-78
2022/09/21 08:17:21;;;;;;;8.60;7.63;;;;;;;12.44;100.00;100418.72;5109794;28;20016;-77
2022/09/21 08:19:47;;;;;;;8.18;7.38;;;;;;;12.41;100.00;100408.38;5115555;28;20040;-78
2022/09/21 08:22:13;;;;;;;8.32;7.40;;;;;;;12.38;100.00;100407.66;5116223;28;20534;-78
2022/09/21 08:24:40;;;;;;;8.93;8.02;;;;;;;12.48;100.00;100419.44;5105896;28;20448;-77
2022/09/21 08:27:06;;;;;;;7.82;7.03;;;;;;;12.60;100.00;100412.81;5095137;28;20022;-77
2022/09/21 08:29:32;;;;;;;8.98;7.05;;;;;;;12.65;100.00;100409.09;5095064;28;20020;-78
2022/09/21 08:31:57;;;;;;;7.97;6.53;;;;;;;12.73;100.00;100414.00;5094995;28;20365;-77
2022/09/21 08:34:22;;;;;;;7.47;6.72;;;;;;;12.85;100.00;100410.00;5094962;28;20065;-77
2022/09/21 08:36:48;;;;;;;7.30;6.60;;;;;;;12.92;100.00;100417.50;5094631;28;20417;-77
2022/09/21 08:39:13;;;;;;;7.63;6.93;;;;;;;13.02;100.00;100417.97;5095020;28;20016;-78
2022/09/21 08:42:03;;;;;;;7.30;6.60;;;;;;;13.13;100.00;100422.69;5095077;28;20049;-77
2022/09/21 08:44:38;;;;;;;9.38;7.00;;;;;;;13.20;100.00;100413.66;5095237;28;20032;-78
2022/09/21 08:47:10;;;;;;;8.82;7.18;;;;;;;13.35;100.00;100415.59;5094949;28;20028;-78
2022/09/21 08:49:39;;;;;;;7.30;6.55;;;;;;;13.47;100.00;100417.66;5094661;28;20024;-77
2022/09/21 08:52:11;;;;;;;6.82;5.78;;;;;;;13.65;99.22;100423.81;5094888;28;20016;-77
2022/09/21 08:54:54;;;;;;;6.45;5.55;;;;;;;13.83;98.73;100427.34;5094826;28;20024;-78
2022/09/21 08:57:21;;;;;;;8.20;5.75;;;;;;;13.86;97.85;100413.22;5094968;28;20098;-78
2022/09/21 08:59:48;;;;;;;8.13;5.80;;;;;;;13.90;96.78;100425.25;5094837;28;20384;-78
2022/09/21 09:02:51;;;;;;;6.32;5.50;;;;;;;13.87;96.67;100434.13;5094504;28;20024;-78
2022/09/21 09:05:19;;;;;;;7.20;5.78;;;;;;;13.90;96.64;100431.34;5094566;28;20048;-77
2022/09/21 09:08:00;;;;;;;8.63;5.35;;;;;;;13.93;96.27;100419.88;5094551;28;20031;-77
2022/09/21 09:10:39;;;;;;;6.97;5.72;;;;;;;14.11;95.89;100420.75;5094534;28;20024;-77
2022/09/21 09:13:17;;;;;;;6.38;4.45;;;;;;;14.30;95.47;100421.56;5094584;28;20028;-77
2022/09/21 09:16:21;;;;;;;5.65;4.75;;;;;;;14.38;94.51;100411.53;5094351;28;20099;-78
2022/09/21 09:18:49;;;;;;;5.57;4.32;;;;;;;14.55;94.22;100425.59;5031536;28;20041;-77
2022/09/21 09:21:16;;;;;;;5.47;4.40;;;;;;;14.60;93.47;100416.56;5031825;28;20423;-77
2022/09/21 09:23:57;;;;;;;6.60;4.80;;;;;;;14.73;92.59;100424.66;5030168;28;20041;-77
2022/09/21 09:26:41;;;;;;;7.68;5.65;;;;;;;14.70;91.89;100414.31;5031656;28;20561;-77
2022/09/21 09:29:20;;;;;;;5.65;5.03;;;;;;;14.78;92.36;100412.16;5031714;28;20048;-77
2022/09/21 09:31:46;;;;;;;5.00;4.50;;;;;;;14.92;91.63;100427.19;5031353;28;20025;-77
2022/09/21 09:34:21;;;;;;;4.82;3.95;;;;;;;15.08;91.01;100420.19;5031763;28;20033;-77
2022/09/21 09:36:52;;;;;;;4.72;4.20;;;;;;;15.15;90.33;100418.94;5031189;28;20473;-77
2022/09/21 09:39:17;;;;;;;4.85;4.18;;;;;;;15.22;89.92;100407.19;5031560;28;20083;-77
2022/09/21 09:41:51;;;;;;;4.53;3.85;;;;;;;15.34;89.61;100413.56;5031283;28;20498;-77
2022/09/21 09:44:22;;;;;;;5.82;4.30;;;;;;;15.32;89.22;100410.16;5031461;28;20079;-77
2022/09/21 09:47:09;;;;;;;5.38;4.07;;;;;;;15.35;89.12;100417.88;5035371;28;20025;-77
2022/09/21 09:50:05;;;;;;;4.97;4.20;;;;;;;15.41;89.56;100404.41;5030982;28;20541;-77
2022/09/21 09:52:31;;;;;;;4.80;4.07;;;;;;;15.50;89.67;100408.28;5030696;28;20493;-77
2022/09/21 09:54:58;;;;;;;5.05;4.20;;;;;;;15.62;89.73;100412.88;5045656;28;20047;-77
2022/09/21 09:57:30;;;;;;;4.45;3.50;;;;;;;15.53;88.57;100404.66;5093678;28;20069;-77
2022/09/21 10:00:02;;;;;;;3.65;3.20;;;;;;;15.43;87.16;100404.34;5093320;28;20065;-77
2022/09/21 10:02:28;;;;;;;4.03;3.00;;;;;;;15.47;87.43;100416.38;5093417;28;20016;-77
2022/09/21 10:05:07;;;;;;;6.65;3.92;;;;;;;15.53;87.25;100410.75;5093172;28;20410;-77
2022/09/21 10:07:41;;;;;;;8.18;3.85;;;;;;;15.60;86.87;100409.50;5093479;28;20020;-77
2022/09/21 10:10:32;;;;;;;3.63;3.17;;;;;;;15.60;86.50;100414.75;5093138;28;20107;-77
2022/09/21 10:13:20;;;;;;;5.43;3.33;;;;;;;15.71;85.77;100412.41;5092624;28;20012;-77
2022/09/21 10:15:52;;;;;;;3.47;3.10;;;;;;;15.64;85.52;100407.56;5092814;28;20028;-77
2022/09/21 10:18:39;;;;;;;6.53;3.28;;;;;;;15.71;85.74;100409.75;5093028;28;20016;-77
2022/09/21 10:21:07;;;;;;;3.65;2.90;;;;;;;15.61;85.42;100382.31;5093026;28;20024;-77
2022/09/21 10:23:35;;;;;;;6.20;3.10;;;;;;;15.74;85.13;100407.91;5092686;28;20028;-77
2022/09/21 10:26:09;;;;;;;8.27;3.08;;;;;;;15.80;85.19;100407.56;5092860;28;20372;-77
2022/09/21 10:28:35;;;;;;;4.38;2.80;;;;;;;15.82;85.52;100397.84;5092989;28;20488;-77
2022/09/21 10:31:11;;;;;;;4.30;2.80;;;;;;;15.79;85.71;100405.88;5092872;28;20031;-77
2022/09/21 10:34:04;;;;;;;2.85;2.65;;;;;;;15.75;86.09;100402.56;5092546;28;20030;-77
2022/09/21 10:36:35;;;;;;;3.60;2.90;;;;;;;15.61;85.94;100397.22;5093166;28;20070;-77
2022/09/21 10:39:39;;;;;;;;;;;;;;;15.61;85.97;100394.59;5093172;28;20024;-77
2022/09/21 10:42:11;;;;;;;3.53;2.20;;;;;;;15.55;85.02;100394.91;5030045;28;19905;-77
2022/09/21 10:44:42;;;;;;;3.15;2.47;;;;;;;15.48;84.83;100395.28;5030208;28;20126;-77
2022/09/21 10:47:16;;;;;;;;;;;;;;;15.41;85.14;100398.31;5030483;28;20386;-77
2022/09/21 10:49:50;;;;;;;4.32;2.80;;;;;;;15.37;85.46;100396.78;5030195;28;19905;-77
2022/09/21 10:52:19;;;;;;;2.13;2.00;;;;;;;15.22;83.98;100391.44;5013516;28;20056;-77
2022/09/21 10:54:50;;;;;;;2.58;2.30;;;;;;;14.97;83.53;100385.81;5029733;28;20144;-77
2022/09/21 10:57:18;;;;;;;3.75;2.50;;;;;;;14.80;83.71;100388.47;5030100;28;20441;-77
2022/09/21 10:59:43;;;;;;;3.25;2.40;;;;;;;14.59;84.87;100377.34;5029845;28;20112;-77
2022/09/21 11:02:32;;;;;;;5.22;3.03;;;;;;;14.71;85.27;100369.69;5029860;28;20119;-77
2022/09/21 11:05:05;;;;;;;3.75;2.92;;;;;;;14.74;84.75;100368.66;5029646;28;20029;-77
2022/09/21 11:07:48;;;;;;;5.25;2.70;;;;;;;14.74;84.21;100360.78;5029912;28;20064;-77
2022/09/21 11:10:47;;;;;;;5.47;2.78;;;;;;;14.78;83.91;100370.19;5030022;28;20025;-77
2022/09/21 11:13:25;;;;;;;3.00;2.28;;;;;;;14.96;83.91;100360.53;5071007;28;20043;-77
2022/09/21 11:15:58;;;;;;;2.58;2.30;;;;;;;15.35;83.10;100368.00;5092265;28;20035;-77
2022/09/21 11:18:55;;;;;;;2.95;2.55;;;;;;;15.46;82.05;100367.41;5092368;28;20035;-77
2022/09/21 11:21:33;;;;;;;4.72;2.83;;;;;;;15.44;81.74;100370.13;5049573;28;20043;-77
2022/09/21 11:24:07;;;;;;;3.42;2.50;;;;;;;15.38;81.89;100367.84;5049207;28;20063;-77
2022/09/21 11:27:00;;;;;;;3.97;2.30;;;;;;;15.28;82.09;100373.66;5049456;28;20422;-77
2022/09/21 11:29:44;;;;;;;2.67;2.08;;;;;;;15.21;82.14;100366.13;4970813;28;20065;-77
2022/09/21 11:32:24;;;;;;;2.88;2.47;;;;;;;15.22;82.15;100362.56;4970503;28;20066;-77
2022/09/21 11:35:25;;;;;;;6.65;2.50;;;;;;;15.21;82.17;100363.50;4970570;28;20539;-77
2022/09/21 11:38:04;;;;;;;3.10;2.35;;;;;;;14.96;81.61;100356.13;4970362;28;20456;-77
2022/09/21 11:40:30;;;;;;;4.88;2.20;;;;;;;14.81;82.45;100362.16;4970633;28;20039;-77
2022/09/21 11:43:31;;;;;;;2.92;2.10;;;;;;;14.63;83.14;100357.91;4970871;28;20306;-77